sensor_id;sensor_type;location;lat;lon;timestamp;P1;durP1;ratioP1;P2;durP2;ratioP2
9384;SDS011;4732;49.340;10.886;2024-02-14T04:04:53;8.53;;;4.87;;
9384;SDS011;4732;49.340;10.886;2024-02-14T04:07:18;5.37;;;4.87;;
9384;SDS011;4732;49.340;10.886;2024-02-14T04:09:44;6.30;;;4.77;;
9384;SDS011;4732;49.340;10.886;2024-02-14T04:12:10;8.20;;;5.20;;
9384;SDS011;4732;49.340;10.886;2024-02-14T04:14:36;7.30;;;4.83;;
9384;SDS011;4732;49.340;10.886;2024-02-14T04:17:02;7.17;;;5.03;;
9384;SDS011;4732;49.340;10.886;2024-02-14T04:19:29;7.67;;;5.17;;
9384;SDS011;4732;49.340;10.886;2024-02-14T04:21:54;6.43;;;4.30;;
9384;SDS011;4732;49.340;10.886;2024-02-14T04:24:20;6.90;;;4.67;;
9384;SDS011;4732;49.340;10.886;2024-02-14T04:26:45;6.93;;;4.83;;
9384;SDS011;4732;49.340;10.886;2024-02-14T04:29:13;6.17;;;4.37;;
9384;SDS011;4732;49.340;10.886;2024-02-14T04:31:38;6.60;;;4.20;;
9384;SDS011;4732;49.340;10.886;2024-02-14T04:34:04;7.37;;;4.57;;
9384;SDS011;4732;49.340;10.886;2024-02-14T04:36:32;6.67;;;4.30;;
9384;SDS011;4732;49.340;10.886;2024-02-14T04:39:00;4.80;;;3.50;;
9384;SDS011;4732;49.340;10.886;2024-02-14T04:41:25;6.07;;;4.03;;
9384;SDS011;4732;49.340;10.886;2024-02-14T04:43:51;8.07;;;4.37;;
9384;SDS011;4732;49.340;10.886;2024-02-14T04:46:17;6.27;;;4.20;;
9384;SDS011;4732;49.340;10.886;2024-02-14T04:48:42;7.37;;;3.90;;
9384;SDS011;4732;49.340;10.886;2024-02-14T04:51:08;6.67;;;3.67;;
9384;SDS011;4732;49.340;10.886;2024-02-14T04:53:33;5.37;;;3.37;;
9384;SDS011;4732;49.340;10.886;2024-02-14T04:55:59;5.03;;;3.90;;
9384;SDS011;4732;49.340;10.886;2024-02-14T04:58:24;6.10;;;3.70;;
9384;SDS011;4732;49.340;10.886;2024-02-14T05:00:51;5.43;;;3.60;;
9384;SDS011;4732;49.340;10.886;2024-02-14T05:03:17;5.13;;;3.50;;
9384;SDS011;4732;49.340;10.886;2024-02-14T05:05:43;5.50;;;3.47;;
9384;SDS011;4732;49.340;10.886;2024-02-14T05:08:09;7.00;;;4.10;;
9384;SDS011;4732;49.340;10.886;2024-02-14T05:10:34;5.27;;;3.80;;
9384;SDS011;4732;49.340;10.886;2024-02-14T05:13:00;5.37;;;4.37;;
9384;SDS011;4732;49.340;10.886;2024-02-14T05:15:26;3.93;;;3.60;;
9384;SDS011;4732;49.340;10.886;2024-02-14T05:17:51;5.73;;;3.87;;
9384;SDS011;4732;49.340;10.886;2024-02-14T05:20:17;6.80;;;4.43;;
9384;SDS011;4732;49.340;10.886;2024-02-14T05:22:43;5.27;;;4.00;;
9384;SDS011;4732;49.340;10.886;2024-02-14T05:25:08;5.40;;;3.73;;
9384;SDS011;4732;49.340;10.886;2024-02-14T05:27:37;10.43;;;5.13;;
9384;SDS011;4732;49.340;10.886;2024-02-14T05:30:03;5.87;;;4.83;;
9384;SDS011;4732;49.340;10.886;2024-02-14T05:32:35;5.60;;;4.50;;
9384;SDS011;4732;49.340;10.886;2024-02-14T05:35:01;5.07;;;4.17;;
9384;SDS011;4732;49.340;10.886;2024-02-14T05:37:29;9.23;;;5.27;;
9384;SDS011;4732;49.340;10.886;2024-02-14T05:39:55;6.53;;;5.00;;
9384;SDS011;4732;49.340;10.886;2024-02-14T05:42:21;5.17;;;4.50;;
9384;SDS011;4732;49.340;10.886;2024-02-14T05:44:47;6.27;;;5.27;;
9384;SDS011;4732;49.340;10.886;2024-02-14T05:47:13;10.47;;;6.83;;
9384;SDS011;4732;49.340;10.886;2024-02-14T05:49:39;10.60;;;6.67;;
9384;SDS011;4732;49.340;10.886;2024-02-14T05:52:07;8.10;;;6.13;;
9384;SDS011;4732;49.340;10.886;2024-02-14T05:54:33;7.80;;;6.27;;
9384;SDS011;4732;49.340;10.886;2024-02-14T05:56:59;9.33;;;5.47;;
9384;SDS011;4732;49.340;10.886;2024-02-14T05:59:27;8.80;;;5.70;;
9384;SDS011;4732;49.340;10.886;2024-02-14T06:01:52;7.77;;;5.10;;
9384;SDS011;4732;49.340;10.886;2024-02-14T06:04:18;8.67;;;6.97;;
9384;SDS011;4732;49.340;10.886;2024-02-14T06:06:44;9.47;;;6.47;;
9384;SDS011;4732;49.340;10.886;2024-02-14T06:09:10;8.77;;;6.60;;
9384;SDS011;4732;49.340;10.886;2024-02-14T06:11:36;7.53;;;5.80;;
9384;SDS011;4732;49.340;10.886;2024-02-14T06:14:06;8.67;;;5.27;;
9384;SDS011;4732;49.340;10.886;2024-02-14T06:16:32;8.20;;;5.30;;
9384;SDS011;4732;49.340;10.886;2024-02-14T06:18:58;5.57;;;4.73;;
9384;SDS011;4732;49.340;10.886;2024-02-14T06:21:24;6.20;;;5.07;;
9384;SDS011;4732;49.340;10.886;2024-02-14T06:23:50;7.70;;;5.13;;
9384;SDS011;4732;49.340;10.886;2024-02-14T06:26:16;8.43;;;4.93;;
9384;SDS011;4732;49.340;10.886;2024-02-14T06:28:42;7.73;;;5.13;;
9384;SDS011;4732;49.340;10.886;2024-02-14T06:31:08;7.43;;;5.20;;
9384;SDS011;4732;49.340;10.886;2024-02-14T06:33:35;6.40;;;4.70;;
9384;SDS011;4732;49.340;10.886;2024-02-14T06:36:00;7.97;;;4.73;;
9384;SDS011;4732;49.340;10.886;2024-02-14T06:38:26;8.03;;;4.87;;
9384;SDS011;4732;49.340;10.886;2024-02-14T06:40:52;8.30;;;4.90;;
9384;SDS011;4732;49.340;10.886;2024-02-14T06:43:17;8.73;;;5.30;;
9384;SDS011;4732;49.340;10.886;2024-02-14T06:45:43;6.63;;;4.60;;
9384;SDS011;4732;49.340;10.886;2024-02-14T06:48:08;7.70;;;4.70;;
9384;SDS011;4732;49.340;10.886;2024-02-14T06:50:34;6.87;;;4.50;;
9384;SDS011;4732;49.340;10.886;2024-02-14T06:53:00;10.33;;;5.33;;
9384;SDS011;4732;49.340;10.886;2024-02-14T06:55:28;8.83;;;7.07;;
9384;SDS011;4732;49.340;10.886;2024-02-14T06:57:57;8.17;;;6.17;;
9384;SDS011;4732;49.340;10.886;2024-02-14T07:00:23;8.80;;;6.53;;
9384;SDS011;4732;49.340;10.886;2024-02-14T07:02:49;9.57;;;7.07;;
9384;SDS011;4732;49.340;10.886;2024-02-14T07:05:14;7.73;;;6.37;;
9384;SDS011;4732;49.340;10.886;2024-02-14T07:07:40;7.03;;;5.50;;
9384;SDS011;4732;49.340;10.886;2024-02-14T07:10:06;6.27;;;4.90;;
9384;SDS011;4732;49.340;10.886;2024-02-14T07:12:32;6.20;;;4.67;;
9384;SDS011;4732;49.340;10.886;2024-02-14T07:14:58;9.83;;;4.43;;
9384;SDS011;4732;49.340;10.886;2024-02-14T07:17:23;7.37;;;4.87;;
9384;SDS011;4732;49.340;10.886;2024-02-14T07:19:49;5.30;;;4.73;;
9384;SDS011;4732;49.340;10.886;2024-02-14T07:22:15;9.23;;;4.67;;
9384;SDS011;4732;49.340;10.886;2024-02-14T07:24:42;6.47;;;4.20;;
9384;SDS011;4732;49.340;10.886;2024-02-14T07:27:08;8.43;;;4.00;;
9384;SDS011;4732;49.340;10.886;2024-02-14T07:29:33;12.23;;;4.40;;
9384;SDS011;4732;49.340;10.886;2024-02-14T07:32:01;7.87;;;4.13;;
9384;SDS011;4732;49.340;10.886;2024-02-14T07:34:27;11.00;;;5.10;;
9384;SDS011;4732;49.340;10.886;2024-02-14T07:36:52;8.37;;;5.50;;
9384;SDS011;4732;49.340;10.886;2024-02-14T07:39:18;9.00;;;5.77;;
9384;SDS011;4732;49.340;10.886;2024-02-14T07:41:43;8.77;;;6.33;;
9384;SDS011;4732;49.340;10.886;2024-02-14T07:44:09;11.03;;;8.17;;
9384;SDS011;4732;49.340;10.886;2024-02-14T07:46:35;11.23;;;6.30;;
9384;SDS011;4732;49.340;10.886;2024-02-14T07:49:00;8.67;;;5.73;;
9384;SDS011;4732;49.340;10.886;2024-02-14T07:51:26;8.17;;;5.17;;
9384;SDS011;4732;49.340;10.886;2024-02-14T07:53:53;6.53;;;4.30;;
9384;SDS011;4732;49.340;10.886;2024-02-14T07:56:19;5.63;;;4.63;;
9384;SDS011;4732;49.340;10.886;2024-02-14T07:58:45;8.10;;;3.87;;
9384;SDS011;4732;49.340;10.886;2024-02-14T08:01:10;6.83;;;4.17;;
9384;SDS011;4732;49.340;10.886;2024-02-14T08:03:36;5.80;;;4.40;;
9384;SDS011;4732;49.340;10.886;2024-02-14T08:06:01;7.23;;;4.00;;
9384;SDS011;4732;49.340;10.886;2024-02-14T08:08:27;4.93;;;3.80;;
9384;SDS011;4732;49.340;10.886;2024-02-14T08:10:53;7.03;;;3.83;;
9384;SDS011;4732;49.340;10.886;2024-02-14T08:13:19;5.23;;;4.10;;
9384;SDS011;4732;49.340;10.886;2024-02-14T08:15:45;7.30;;;4.30;;
9384;SDS011;4732;49.340;10.886;2024-02-14T08:18:11;6.37;;;3.97;;
9384;SDS011;4732;49.340;10.886;2024-02-14T08:20:37;5.13;;;3.90;;
9384;SDS011;4732;49.340;10.886;2024-02-14T08:23:03;5.30;;;3.47;;
9384;SDS011;4732;49.340;10.886;2024-02-14T08:25:29;6.83;;;3.47;;
9384;SDS011;4732;49.340;10.886;2024-02-14T08:27:54;7.57;;;3.70;;
9384;SDS011;4732;49.340;10.886;2024-02-14T08:30:20;6.63;;;3.83;;
9384;SDS011;4732;49.340;10.886;2024-02-14T08:32:46;4.23;;;3.23;;
9384;SDS011;4732;49.340;10.886;2024-02-14T08:35:12;5.43;;;3.43;;
9384;SDS011;4732;49.340;10.886;2024-02-14T08:37:38;5.47;;;3.40;;
9384;SDS011;4732;49.340;10.886;2024-02-14T08:40:05;8.57;;;3.60;;
9384;SDS011;4732;49.340;10.886;2024-02-14T08:42:32;5.00;;;3.50;;
9384;SDS011;4732;49.340;10.886;2024-02-14T08:44:59;6.67;;;3.47;;
9384;SDS011;4732;49.340;10.886;2024-02-14T08:47:25;4.63;;;3.50;;
9384;SDS011;4732;49.340;10.886;2024-02-14T08:49:51;6.53;;;3.53;;
9384;SDS011;4732;49.340;10.886;2024-02-14T08:52:17;4.80;;;3.07;;
9384;SDS011;4732;49.340;10.886;2024-02-14T08:54:43;5.73;;;3.50;;
9384;SDS011;4732;49.340;10.886;2024-02-14T08:57:09;4.60;;;3.27;;
9384;SDS011;4732;49.340;10.886;2024-02-14T08:59:34;5.43;;;2.97;;
9384;SDS011;4732;49.340;10.886;2024-02-14T09:02:00;5.70;;;3.20;;
9384;SDS011;4732;49.340;10.886;2024-02-14T09:04:25;5.33;;;3.10;;
9384;SDS011;4732;49.340;10.886;2024-02-14T09:06:52;5.80;;;3.00;;
9384;SDS011;4732;49.340;10.886;2024-02-14T09:09:18;3.80;;;2.63;;
9384;SDS011;4732;49.340;10.886;2024-02-14T09:11:44;6.40;;;3.20;;
9384;SDS011;4732;49.340;10.886;2024-02-14T09:14:11;5.40;;;3.17;;
9384;SDS011;4732;49.340;10.886;2024-02-14T09:16:37;4.67;;;2.90;;
9384;SDS011;4732;49.340;10.886;2024-02-14T09:19:04;6.93;;;2.97;;
9384;SDS011;4732;49.340;10.886;2024-02-14T09:21:32;10.17;;;2.90;;
9384;SDS011;4732;49.340;10.886;2024-02-14T09:23:59;5.07;;;2.57;;
9384;SDS011;4732;49.340;10.886;2024-02-14T09:26:25;4.63;;;2.20;;
9384;SDS011;4732;49.340;10.886;2024-02-14T09:28:51;4.90;;;2.70;;
9384;SDS011;4732;49.340;10.886;2024-02-14T09:31:20;4.97;;;2.87;;
9384;SDS011;4732;49.340;10.886;2024-02-14T09:33:47;6.10;;;2.90;;
9384;SDS011;4732;49.340;10.886;2024-02-14T09:36:14;4.57;;;2.30;;
9384;SDS011;4732;49.340;10.886;2024-02-14T09:38:40;4.97;;;2.90;;
9384;SDS011;4732;49.340;10.886;2024-02-14T09:41:11;3.40;;;2.13;;
9384;SDS011;4732;49.340;10.886;2024-02-14T09:43:43;4.40;;;2.77;;
9384;SDS011;4732;49.340;10.886;2024-02-14T09:46:11;6.13;;;4.23;;
9384;SDS011;4732;49.340;10.886;2024-02-14T09:48:38;3.60;;;2.50;;
9384;SDS011;4732;49.340;10.886;2024-02-14T09:51:05;5.63;;;3.10;;
9384;SDS011;4732;49.340;10.886;2024-02-14T09:53:32;5.13;;;2.87;;
9384;SDS011;4732;49.340;10.886;2024-02-14T09:55:59;7.00;;;2.57;;
9384;SDS011;4732;49.340;10.886;2024-02-14T09:58:26;5.47;;;3.90;;
9384;SDS011;4732;49.340;10.886;2024-02-14T10:00:53;4.67;;;2.67;;
9384;SDS011;4732;49.340;10.886;2024-02-14T10:03:18;4.07;;;2.60;;
9384;SDS011;4732;49.340;10.886;2024-02-14T10:05:44;3.80;;;2.53;;
9384;SDS011;4732;49.340;10.886;2024-02-14T10:08:10;3.97;;;2.40;;
9384;SDS011;4732;49.340;10.886;2024-02-14T10:10:37;6.97;;;2.47;;
9384;SDS011;4732;49.340;10.886;2024-02-14T10:13:06;4.27;;;2.50;;
9384;SDS011;4732;49.340;10.886;2024-02-14T10:15:32;3.80;;;2.17;;
9384;SDS011;4732;49.340;10.886;2024-02-14T10:17:58;4.73;;;2.63;;
9384;SDS011;4732;49.340;10.886;2024-02-14T10:20:25;4.13;;;2.23;;
9384;SDS011;4732;49.340;10.886;2024-02-14T10:22:51;7.00;;;2.50;;
9384;SDS011;4732;49.340;10.886;2024-02-14T10:25:25;6.27;;;2.23;;
9384;SDS011;4732;49.340;10.886;2024-02-14T10:27:51;3.07;;;2.03;;
9384;SDS011;4732;49.340;10.886;2024-02-14T10:30:17;5.47;;;2.40;;
9384;SDS011;4732;49.340;10.886;2024-02-14T10:32:42;3.70;;;1.93;;
9384;SDS011;4732;49.340;10.886;2024-02-14T10:35:13;4.63;;;2.30;;
9384;SDS011;4732;49.340;10.886;2024-02-14T10:37:39;3.83;;;1.80;;
9384;SDS011;4732;49.340;10.886;2024-02-14T10:40:05;3.33;;;1.73;;
9384;SDS011;4732;49.340;10.886;2024-02-14T10:42:32;2.13;;;1.47;;
9384;SDS011;4732;49.340;10.886;2024-02-14T10:44:58;3.20;;;1.60;;
9384;SDS011;4732;49.340;10.886;2024-02-14T10:47:30;1.53;;;1.30;;
9384;SDS011;4732;49.340;10.886;2024-02-14T10:50:00;3.10;;;1.70;;
9384;SDS011;4732;49.340;10.886;2024-02-14T10:52:40;3.77;;;1.90;;
9384;SDS011;4732;49.340;10.886;2024-02-14T10:55:06;4.47;;;1.67;;
9384;SDS011;4732;49.340;10.886;2024-02-14T10:57:34;3.50;;;1.40;;
9384;SDS011;4732;49.340;10.886;2024-02-14T11:00:01;3.13;;;1.37;;
9384;SDS011;4732;49.340;10.886;2024-02-14T11:02:30;2.73;;;1.43;;
9384;SDS011;4732;49.340;10.886;2024-02-14T11:04:57;2.87;;;1.57;;
9384;SDS011;4732;49.340;10.886;2024-02-14T11:07:23;3.07;;;1.50;;
9384;SDS011;4732;49.340;10.886;2024-02-14T11:10:12;4.37;;;1.50;;
9384;SDS011;4732;49.340;10.886;2024-02-14T11:12:36;1.87;;;1.33;;
9384;SDS011;4732;49.340;10.886;2024-02-14T11:17:46;4.53;;;1.25;;
9384;SDS011;4732;49.340;10.886;2024-02-14T11:22:50;3.58;;;1.23;;
9384;SDS011;4732;49.340;10.886;2024-02-14T11:25:22;2.17;;;1.08;;
9384;SDS011;4732;49.340;10.886;2024-02-14T11:27:49;2.03;;;1.27;;
9384;SDS011;4732;49.340;10.886;2024-02-14T11:30:15;2.78;;;1.20;;
9384;SDS011;4732;49.340;10.886;2024-02-14T11:32:54;2.65;;;1.30;;
9384;SDS011;4732;49.340;10.886;2024-02-14T11:35:20;6.00;;;1.42;;
9384;SDS011;4732;49.340;10.886;2024-02-14T11:37:51;2.97;;;1.17;;
9384;SDS011;4732;49.340;10.886;2024-02-14T11:40:19;1.63;;;1.15;;
9384;SDS011;4732;49.340;10.886;2024-02-14T11:42:45;3.38;;;1.10;;
9384;SDS011;4732;49.340;10.886;2024-02-14T11:45:12;2.88;;;0.98;;
9384;SDS011;4732;49.340;10.886;2024-02-14T11:47:38;2.78;;;0.90;;
9384;SDS011;4732;49.340;10.886;2024-02-14T11:50:04;3.58;;;1.10;;
9384;SDS011;4732;49.340;10.886;2024-02-14T11:52:30;2.75;;;1.10;;
9384;SDS011;4732;49.340;10.886;2024-02-14T11:54:56;1.95;;;1.10;;
9384;SDS011;4732;49.340;10.886;2024-02-14T11:57:25;4.05;;;1.20;;
9384;SDS011;4732;49.340;10.886;2024-02-14T11:59:51;2.10;;;0.95;;
9384;SDS011;4732;49.340;10.886;2024-02-14T12:02:18;1.95;;;0.85;;
9384;SDS011;4732;49.340;10.886;2024-02-14T12:04:44;3.03;;;0.90;;
9384;SDS011;4732;49.340;10.886;2024-02-14T12:07:11;2.45;;;0.85;;
9384;SDS011;4732;49.340;10.886;2024-02-14T12:09:38;3.10;;;1.15;;
9384;SDS011;4732;49.340;10.886;2024-02-14T12:12:04;1.45;;;0.80;;
9384;SDS011;4732;49.340;10.886;2024-02-14T12:14:31;2.55;;;1.13;;
9384;SDS011;4732;49.340;10.886;2024-02-14T12:17:00;2.63;;;0.98;;
9384;SDS011;4732;49.340;10.886;2024-02-14T12:19:31;2.42;;;0.90;;
9384;SDS011;4732;49.340;10.886;2024-02-14T12:21:59;3.15;;;1.23;;
9384;SDS011;4732;49.340;10.886;2024-02-14T12:24:27;1.38;;;0.90;;
9384;SDS011;4732;49.340;10.886;2024-02-14T12:26:54;1.40;;;0.82;;
9384;SDS011;4732;49.340;10.886;2024-02-14T12:29:20;1.83;;;0.95;;
9384;SDS011;4732;49.340;10.886;2024-02-14T12:31:46;2.13;;;0.95;;
9384;SDS011;4732;49.340;10.886;2024-02-14T12:34:12;1.80;;;0.88;;
9384;SDS011;4732;49.340;10.886;2024-02-14T12:36:38;3.47;;;1.10;;
9384;SDS011;4732;49.340;10.886;2024-02-14T12:39:04;0.90;;;0.80;;
9384;SDS011;4732;49.340;10.886;2024-02-14T12:41:31;3.42;;;0.80;;
9384;SDS011;4732;49.340;10.886;2024-02-14T12:44:00;2.70;;;0.77;;
9384;SDS011;4732;49.340;10.886;2024-02-14T12:46:26;2.03;;;1.10;;
9384;SDS011;4732;49.340;10.886;2024-02-14T12:48:52;2.85;;;1.20;;
9384;SDS011;4732;49.340;10.886;2024-02-14T12:51:18;1.30;;;0.90;;
9384;SDS011;4732;49.340;10.886;2024-02-14T12:53:44;1.77;;;1.25;;
9384;SDS011;4732;49.340;10.886;2024-02-14T12:56:10;1.05;;;0.90;;
9384;SDS011;4732;49.340;10.886;2024-02-14T12:58:36;2.63;;;0.80;;
9384;SDS011;4732;49.340;10.886;2024-02-14T13:01:02;1.40;;;0.88;;
9384;SDS011;4732;49.340;10.886;2024-02-14T13:03:32;1.20;;;0.90;;
9384;SDS011;4732;49.340;10.886;2024-02-14T13:05:58;1.55;;;0.90;;
9384;SDS011;4732;49.340;10.886;2024-02-14T13:08:25;1.63;;;1.38;;
9384;SDS011;4732;49.340;10.886;2024-02-14T13:10:51;1.50;;;0.98;;
9384;SDS011;4732;49.340;10.886;2024-02-14T13:13:18;1.42;;;0.82;;
9384;SDS011;4732;49.340;10.886;2024-02-14T13:15:43;0.77;;;0.70;;
9384;SDS011;4732;49.340;10.886;2024-02-14T13:18:09;1.60;;;0.88;;
9384;SDS011;4732;49.340;10.886;2024-02-14T13:20:36;1.90;;;0.80;;
9384;SDS011;4732;49.340;10.886;2024-02-14T13:23:03;1.17;;;0.70;;
9384;SDS011;4732;49.340;10.886;2024-02-14T13:25:29;0.70;;;0.55;;
9384;SDS011;4732;49.340;10.886;2024-02-14T13:27:55;1.40;;;0.77;;
9384;SDS011;4732;49.340;10.886;2024-02-14T13:30:21;1.15;;;0.70;;
9384;SDS011;4732;49.340;10.886;2024-02-14T13:32:47;1.67;;;0.88;;
9384;SDS011;4732;49.340;10.886;2024-02-14T13:35:13;1.17;;;0.70;;
9384;SDS011;4732;49.340;10.886;2024-02-14T13:37:39;0.73;;;0.60;;
9384;SDS011;4732;49.340;10.886;2024-02-14T13:40:05;1.48;;;0.80;;
9384;SDS011;4732;49.340;10.886;2024-02-14T13:42:35;3.60;;;0.70;;
9384;SDS011;4732;49.340;10.886;2024-02-14T13:45:02;1.75;;;0.88;;
9384;SDS011;4732;49.340;10.886;2024-02-14T13:47:28;1.08;;;0.80;;
9384;SDS011;4732;49.340;10.886;2024-02-14T13:49:54;1.95;;;0.80;;
9384;SDS011;4732;49.340;10.886;2024-02-14T13:52:20;3.55;;;1.10;;
9384;SDS011;4732;49.340;10.886;2024-02-14T13:54:46;3.63;;;1.13;;
9384;SDS011;4732;49.340;10.886;2024-02-14T13:57:12;3.90;;;1.00;;
9384;SDS011;4732;49.340;10.886;2024-02-14T13:59:38;4.63;;;0.95;;
9384;SDS011;4732;49.340;10.886;2024-02-14T14:02:04;4.10;;;1.08;;
9384;SDS011;4732;49.340;10.886;2024-02-14T14:04:30;5.57;;;0.90;;
9384;SDS011;4732;49.340;10.886;2024-02-14T14:06:55;1.85;;;0.90;;
9384;SDS011;4732;49.340;10.886;2024-02-14T14:09:23;1.25;;;1.08;;
9384;SDS011;4732;49.340;10.886;2024-02-14T14:11:48;2.45;;;1.05;;
9384;SDS011;4732;49.340;10.886;2024-02-14T14:14:16;1.55;;;0.82;;
9384;SDS011;4732;49.340;10.886;2024-02-14T14:16:43;2.42;;;1.08;;
9384;SDS011;4732;49.340;10.886;2024-02-14T14:19:09;1.55;;;0.80;;
9384;SDS011;4732;49.340;10.886;2024-02-14T14:21:34;4.05;;;0.98;;
9384;SDS011;4732;49.340;10.886;2024-02-14T14:24:00;2.22;;;1.40;;
9384;SDS011;4732;49.340;10.886;2024-02-14T14:26:25;2.55;;;1.23;;
9384;SDS011;4732;49.340;10.886;2024-02-14T14:28:51;2.13;;;1.05;;
9384;SDS011;4732;49.340;10.886;2024-02-14T14:31:19;4.45;;;1.20;;
9384;SDS011;4732;49.340;10.886;2024-02-14T14:33:45;2.90;;;1.10;;
9384;SDS011;4732;49.340;10.886;2024-02-14T14:36:10;2.40;;;0.90;;
9384;SDS011;4732;49.340;10.886;2024-02-14T14:38:35;1.92;;;1.00;;
9384;SDS011;4732;49.340;10.886;2024-02-14T14:41:01;1.25;;;0.80;;
9384;SDS011;4732;49.340;10.886;2024-02-14T14:43:27;2.22;;;1.13;;
9384;SDS011;4732;49.340;10.886;2024-02-14T14:45:53;2.53;;;1.40;;
9384;SDS011;4732;49.340;10.886;2024-02-14T14:48:18;2.22;;;1.30;;
9384;SDS011;4732;49.340;10.886;2024-02-14T14:50:44;3.42;;;1.40;;
9384;SDS011;4732;49.340;10.886;2024-02-14T14:53:09;2.88;;;1.65;;
9384;SDS011;4732;49.340;10.886;2024-02-14T14:55:51;1.65;;;1.10;;
9384;SDS011;4732;49.340;10.886;2024-02-14T14:58:20;4.03;;;1.50;;
9384;SDS011;4732;49.340;10.886;2024-02-14T15:00:47;1.52;;;1.30;;
9384;SDS011;4732;49.340;10.886;2024-02-14T15:03:13;2.42;;;1.10;;
9384;SDS011;4732;49.340;10.886;2024-02-14T15:05:38;1.77;;;1.05;;
9384;SDS011;4732;49.340;10.886;2024-02-14T15:08:07;1.00;;;0.90;;
9384;SDS011;4732;49.340;10.886;2024-02-14T15:10:33;1.05;;;0.82;;
9384;SDS011;4732;49.340;10.886;2024-02-14T15:12:59;3.05;;;1.02;;
9384;SDS011;4732;49.340;10.886;2024-02-14T15:15:25;1.98;;;1.10;;
9384;SDS011;4732;49.340;10.886;2024-02-14T15:17:51;2.70;;;1.10;;
9384;SDS011;4732;49.340;10.886;2024-02-14T15:20:16;2.80;;;0.98;;
9384;SDS011;4732;49.340;10.886;2024-02-14T15:22:42;3.17;;;1.15;;
9384;SDS011;4732;49.340;10.886;2024-02-14T15:25:07;1.77;;;1.02;;
9384;SDS011;4732;49.340;10.886;2024-02-14T15:27:33;1.35;;;0.93;;
9384;SDS011;4732;49.340;10.886;2024-02-14T15:30:01;2.38;;;1.10;;
9384;SDS011;4732;49.340;10.886;2024-02-14T15:33:01;1.85;;;0.80;;
9384;SDS011;4732;49.340;10.886;2024-02-14T15:35:46;2.17;;;0.93;;
9384;SDS011;4732;49.340;10.886;2024-02-14T15:38:12;3.20;;;1.00;;
9384;SDS011;4732;49.340;10.886;2024-02-14T15:40:37;1.45;;;0.98;;
9384;SDS011;4732;49.340;10.886;2024-02-14T15:43:03;2.35;;;0.95;;
9384;SDS011;4732;49.340;10.886;2024-02-14T15:45:29;1.52;;;0.98;;
9384;SDS011;4732;49.340;10.886;2024-02-14T15:47:54;2.22;;;1.00;;
9384;SDS011;4732;49.340;10.886;2024-02-14T15:50:22;3.28;;;1.30;;
9384;SDS011;4732;49.340;10.886;2024-02-14T15:52:49;3.78;;;1.65;;
9384;SDS011;4732;49.340;10.886;2024-02-14T15:55:14;2.45;;;0.93;;
9384;SDS011;4732;49.340;10.886;2024-02-14T15:57:40;2.45;;;1.00;;
9384;SDS011;4732;49.340;10.886;2024-02-14T16:00:06;1.42;;;0.70;;
9384;SDS011;4732;49.340;10.886;2024-02-14T16:02:35;2.80;;;1.73;;
9384;SDS011;4732;49.340;10.886;2024-02-14T16:05:01;5.60;;;2.65;;
9384;SDS011;4732;49.340;10.886;2024-02-14T16:07:29;2.70;;;1.10;;
9384;SDS011;4732;49.340;10.886;2024-02-14T16:09:55;2.50;;;1.10;;
9384;SDS011;4732;49.340;10.886;2024-02-14T16:12:20;1.70;;;0.95;;
9384;SDS011;4732;49.340;10.886;2024-02-14T16:14:46;1.75;;;1.00;;
9384;SDS011;4732;49.340;10.886;2024-02-14T16:17:12;2.83;;;1.00;;
9384;SDS011;4732;49.340;10.886;2024-02-14T16:19:37;0.88;;;0.70;;
9384;SDS011;4732;49.340;10.886;2024-02-14T16:22:03;1.05;;;0.65;;
9384;SDS011;4732;49.340;10.886;2024-02-14T16:24:29;1.48;;;1.00;;
9384;SDS011;4732;49.340;10.886;2024-02-14T16:26:56;2.00;;;0.98;;
9384;SDS011;4732;49.340;10.886;2024-02-14T16:29:22;10.18;;;6.72;;
9384;SDS011;4732;49.340;10.886;2024-02-14T16:31:47;13.57;;;6.85;;
9384;SDS011;4732;49.340;10.886;2024-02-14T16:34:13;3.70;;;2.78;;
9384;SDS011;4732;49.340;10.886;2024-02-14T16:36:38;1.67;;;1.25;;
9384;SDS011;4732;49.340;10.886;2024-02-14T16:39:04;2.70;;;1.55;;
9384;SDS011;4732;49.340;10.886;2024-02-14T16:41:29;1.80;;;1.10;;
9384;SDS011;4732;49.340;10.886;2024-02-14T16:43:55;1.40;;;0.95;;
9384;SDS011;4732;49.340;10.886;2024-02-14T16:46:22;1.50;;;1.08;;
9384;SDS011;4732;49.340;10.886;2024-02-14T16:48:48;2.20;;;1.00;;
9384;SDS011;4732;49.340;10.886;2024-02-14T16:51:13;1.92;;;1.13;;
9384;SDS011;4732;49.340;10.886;2024-02-14T16:53:41;2.20;;;1.17;;
9384;SDS011;4732;49.340;10.886;2024-02-14T16:56:07;2.03;;;1.08;;
9384;SDS011;4732;49.340;10.886;2024-02-14T16:58:33;1.20;;;0.70;;
9384;SDS011;4732;49.340;10.886;2024-02-14T17:00:59;1.42;;;0.90;;
9384;SDS011;4732;49.340;10.886;2024-02-14T17:03:24;1.80;;;0.85;;
9384;SDS011;4732;49.340;10.886;2024-02-14T17:05:50;1.98;;;1.20;;
9384;SDS011;4732;49.340;10.886;2024-02-14T17:08:17;1.52;;;0.98;;
9384;SDS011;4732;49.340;10.886;2024-02-14T17:10:43;1.73;;;1.00;;
9384;SDS011;4732;49.340;10.886;2024-02-14T17:13:08;1.58;;;0.90;;
9384;SDS011;4732;49.340;10.886;2024-02-14T17:15:34;2.10;;;1.00;;
9384;SDS011;4732;49.340;10.886;2024-02-14T17:17:59;1.83;;;1.00;;
9384;SDS011;4732;49.340;10.886;2024-02-14T17:20:25;1.02;;;0.88;;
9384;SDS011;4732;49.340;10.886;2024-02-14T17:22:51;1.70;;;0.85;;
9384;SDS011;4732;49.340;10.886;2024-02-14T17:25:16;2.03;;;1.15;;
9384;SDS011;4732;49.340;10.886;2024-02-14T17:27:43;1.27;;;1.10;;
9384;SDS011;4732;49.340;10.886;2024-02-14T17:30:09;1.40;;;1.27;;
9384;SDS011;4732;49.340;10.886;2024-02-14T17:32:35;2.33;;;1.50;;
9384;SDS011;4732;49.340;10.886;2024-02-14T17:35:00;2.67;;;2.05;;
9384;SDS011;4732;49.340;10.886;2024-02-14T17:37:26;3.53;;;2.20;;
9384;SDS011;4732;49.340;10.886;2024-02-14T17:39:51;5.85;;;3.22;;
9384;SDS011;4732;49.340;10.886;2024-02-14T17:42:17;6.95;;;3.53;;
9384;SDS011;4732;49.340;10.886;2024-02-14T17:44:42;3.17;;;1.83;;
9384;SDS011;4732;49.340;10.886;2024-02-14T17:47:08;1.60;;;0.98;;
9384;SDS011;4732;49.340;10.886;2024-02-14T17:49:34;1.80;;;1.23;;
9384;SDS011;4732;49.340;10.886;2024-02-14T17:52:00;2.80;;;2.00;;
9384;SDS011;4732;49.340;10.886;2024-02-14T17:54:25;2.88;;;1.80;;
9384;SDS011;4732;49.340;10.886;2024-02-14T17:56:51;3.10;;;1.98;;
9384;SDS011;4732;49.340;10.886;2024-02-14T17:59:17;3.80;;;1.83;;
9384;SDS011;4732;49.340;10.886;2024-02-14T18:01:43;3.35;;;1.75;;
9384;SDS011;4732;49.340;10.886;2024-02-14T18:04:09;4.00;;;2.05;;
9384;SDS011;4732;49.340;10.886;2024-02-14T18:06:35;3.88;;;2.30;;
9384;SDS011;4732;49.340;10.886;2024-02-14T18:09:01;4.18;;;2.13;;
9384;SDS011;4732;49.340;10.886;2024-02-14T18:11:27;2.15;;;1.67;;
9384;SDS011;4732;49.340;10.886;2024-02-14T18:13:53;1.50;;;1.40;;
9384;SDS011;4732;49.340;10.886;2024-02-14T18:16:19;1.77;;;1.30;;
9384;SDS011;4732;49.340;10.886;2024-02-14T18:18:45;1.85;;;1.45;;
9384;SDS011;4732;49.340;10.886;2024-02-14T18:21:11;3.38;;;1.40;;
9384;SDS011;4732;49.340;10.886;2024-02-14T18:23:37;1.77;;;1.20;;
9384;SDS011;4732;49.340;10.886;2024-02-14T18:26:03;3.83;;;1.70;;
9384;SDS011;4732;49.340;10.886;2024-02-14T18:28:29;2.42;;;1.60;;
9384;SDS011;4732;49.340;10.886;2024-02-14T18:30:56;2.28;;;1.92;;
9384;SDS011;4732;49.340;10.886;2024-02-14T18:33:23;2.45;;;2.20;;
9384;SDS011;4732;49.340;10.886;2024-02-14T18:35:49;3.40;;;2.20;;
9384;SDS011;4732;49.340;10.886;2024-02-14T18:38:14;2.80;;;2.10;;
9384;SDS011;4732;49.340;10.886;2024-02-14T18:40:44;2.78;;;2.30;;
9384;SDS011;4732;49.340;10.886;2024-02-14T18:43:09;3.20;;;2.13;;
9384;SDS011;4732;49.340;10.886;2024-02-14T18:45:36;2.50;;;1.90;;
9384;SDS011;4732;49.340;10.886;2024-02-14T18:48:01;2.70;;;2.25;;
9384;SDS011;4732;49.340;10.886;2024-02-14T18:50:27;3.05;;;2.70;;
9384;SDS011;4732;49.340;10.886;2024-02-14T18:52:53;3.65;;;1.80;;
9384;SDS011;4732;49.340;10.886;2024-02-14T18:55:18;3.60;;;1.65;;
9384;SDS011;4732;49.340;10.886;2024-02-14T18:57:44;2.70;;;1.93;;
9384;SDS011;4732;49.340;10.886;2024-02-14T19:00:10;3.05;;;2.75;;
9384;SDS011;4732;49.340;10.886;2024-02-14T19:02:36;3.40;;;3.10;;
9384;SDS011;4732;49.340;10.886;2024-02-14T19:05:03;4.45;;;3.88;;